This is the latest recevied weather packets stored in our database for station/object NC0S. If no packets are shown the sender has not sent any weather packets the latest 10 day(s).
| Time | Temp. | Humidity | Pressure | Rain* | Wind** | Luminosity | Snow |
|---|---|---|---|---|---|---|---|
| 1777935028 | 27.22° C | 42% | 1002.9 hPa | 0 mm | - | - | - |
| 1777932648 | 27.22° C | 42% | 1003 hPa | 0 mm | - | - | - |
| 1777932028 | 26.67° C | 44% | 1003 hPa | 0 mm | - | - | - |
| 1777931428 | 26.67° C | 44% | 1003.2 hPa | 0 mm | - | - | - |
| 1777930828 | 26.67° C | 43% | 1003.4 hPa | 0 mm | - | - | - |
| 1777930228 | 26.67° C | 44% | 1003.4 hPa | 0 mm | - | - | - |
| 1777929029 | 26.11° C | 44% | 1003.5 hPa | 0 mm | - | - | - |
| 1777925428 | 26.67° C | 42% | 1003.8 hPa | 0 mm | - | - | - |
| 1777915828 | 25.56° C | 44% | 1004.7 hPa | 0 mm | - | - | - |
| 1777911028 | 23.89° C | 45% | 1005 hPa | 0 mm | - | - | - |
| 1777909228 | 23.89° C | 46% | 1005.1 hPa | 0 mm | - | - | - |
| 1777903229 | 20.56° C | 50% | 1005.2 hPa | 0 mm | - | - | - |
| 1777895428 | 17.22° C | 53% | 1005.1 hPa | 0 mm | - | - | - |
| 1777891228 | 18.33° C | 50% | 1005.2 hPa | 0 mm | - | - | - |
| 1777888829 | 18.33° C | 49% | 1005.4 hPa | 0 mm | - | - | - |
| 1777887028 | 18.89° C | 49% | 1005.7 hPa | 0 mm | - | - | - |
| 1777886427 | 18.89° C | 48% | 1005.8 hPa | 0 mm | - | - | - |
| 1777885228 | 18.89° C | 47% | 1005.8 hPa | 0 mm | - | - | - |
| 1777884628 | 18.89° C | 48% | 1006 hPa | 0 mm | - | - | - |
| 1777881628 | 18.89° C | 48% | 1006.6 hPa | 0 mm | - | - | - |
| 1777875030 | 14.44° C | 69% | 1008.2 hPa | 0 mm | - | - | - |
| 1777873230 | 15° C | 67% | 1008.5 hPa | 0 mm | - | - | - |
| 1777872030 | 15.56° C | 66% | 1008.6 hPa | 0 mm | - | - | - |
| 1777867830 | 16.11° C | 63% | 1008.2 hPa | 0 mm | - | - | - |
| 1777864850 | 18.33° C | 57% | 1008.9 hPa | 0 mm | - | - | - |
* Rain latest hour (hover to see other rain measurements)
** Current wind speed in m/s (hover to see current wind gust speed)